createdAt,value
2022-08-05T00:02:27.843Z,100789.91
2022-08-05T00:04:56.140Z,100792.13
2022-08-05T00:07:59.299Z,100801.44
2022-08-05T00:10:11.105Z,100825.59
2022-08-05T00:12:48.498Z,100820.59
2022-08-05T00:15:56.202Z,100806.44
2022-08-05T00:18:21.378Z,100818.50
2022-08-05T00:20:50.554Z,100822.28
2022-08-05T00:23:44.765Z,100831.66
2022-08-05T00:26:06.085Z,100834.81
2022-08-05T00:28:33.327Z,100837.59
2022-08-05T00:31:02.997Z,100842.25
2022-08-05T00:34:53.875Z,100845.25
2022-08-05T00:37:10.380Z,100858.09
2022-08-05T00:39:06.171Z,100845.78
2022-08-05T00:41:51.994Z,100848.91
2022-08-05T00:44:30.862Z,100855.75
2022-08-05T00:47:02.150Z,100858.66
2022-08-05T00:49:32.626Z,100858.28
2022-08-05T00:52:00.392Z,100855.03
2022-08-05T00:54:28.123Z,100848.13
2022-08-05T00:56:57.227Z,100842.91
2022-08-05T00:59:24.049Z,100835.06
2022-08-05T01:01:51.429Z,100836.28
2022-08-05T01:04:19.994Z,100841.25
2022-08-05T01:06:53.544Z,100859.66
2022-08-05T01:09:22.162Z,100856.41
2022-08-05T01:11:53.980Z,100853.78
2022-08-05T01:14:35.433Z,100857.47
2022-08-05T01:17:20.590Z,100846.88
2022-08-05T01:20:13.825Z,100848.28
2022-08-05T01:23:23.747Z,100839.03
2022-08-05T01:26:04.383Z,100845.91
2022-08-05T01:28:54.116Z,100841.91
2022-08-05T01:31:45.040Z,100832.50
2022-08-05T01:34:22.354Z,100839.28
2022-08-05T01:37:10.610Z,100844.13
2022-08-05T01:39:54.825Z,100842.56
2022-08-05T01:42:27.984Z,100841.91
2022-08-05T01:44:57.324Z,100842.66
2022-08-05T01:47:38.695Z,100852.75
2022-08-05T01:50:15.133Z,100845.47
2022-08-05T01:52:49.870Z,100841.03
2022-08-05T01:55:21.176Z,100841.03
2022-08-05T01:58:29.499Z,100856.44
2022-08-05T02:00:42.410Z,100860.00
2022-08-05T02:03:29.261Z,100857.66
2022-08-05T02:06:03.535Z,100864.44
2022-08-05T02:08:57.950Z,100855.16
2022-08-05T02:11:32.742Z,100850.72
2022-08-05T02:14:17.752Z,100836.28
2022-08-05T02:16:52.976Z,100827.25
2022-08-05T02:19:36.345Z,100822.59
2022-08-05T02:22:27.287Z,100810.91
2022-08-05T02:25:03.776Z,100816.22
2022-08-05T02:27:59.442Z,100833.28
2022-08-05T02:30:26.938Z,100847.72
2022-08-05T02:32:55.978Z,100847.59
2022-08-05T02:35:32.970Z,100816.03
2022-08-05T02:38:02.338Z,100818.25
2022-08-05T02:40:30.951Z,100823.34
2022-08-05T02:43:00.516Z,100811.31
2022-08-05T02:45:51.405Z,100764.13
2022-08-05T02:48:17.448Z,100720.97
2022-08-05T02:50:47.330Z,100733.94
2022-08-05T02:53:16.086Z,100747.50
2022-08-05T02:55:54.399Z,100784.31
2022-08-05T02:58:28.885Z,100787.34
2022-08-05T03:01:01.884Z,100781.59
2022-08-05T03:03:33.861Z,100791.09
2022-08-05T03:06:56.815Z,100782.47
2022-08-05T03:09:05.151Z,100759.50
2022-08-05T03:11:53.400Z,100722.28
2022-08-05T03:14:21.407Z,100703.00
2022-08-05T03:16:48.181Z,100716.88
2022-08-05T03:19:20.251Z,100729.84
2022-08-05T03:22:01.561Z,100719.47
2022-08-05T03:24:30.836Z,100742.41
2022-08-05T03:26:59.974Z,100739.97
2022-08-05T03:29:45.200Z,100755.56
2022-08-05T03:32:19.439Z,100764.00
2022-08-05T03:34:51.047Z,100782.13
2022-08-05T03:37:19.993Z,100800.47
2022-08-05T03:39:59.214Z,100807.59
2022-08-05T03:42:29.200Z,100825.56
2022-08-05T03:44:58.887Z,100817.28
2022-08-05T03:47:30.498Z,100809.03
2022-08-05T03:50:02.365Z,100825.09
2022-08-05T03:54:59.406Z,100826.66
2022-08-05T03:56:04.637Z,100818.47
2022-08-05T03:58:29.213Z,100834.72
2022-08-05T04:00:58.075Z,100849.00
2022-08-05T04:03:29.461Z,100831.13
2022-08-05T04:05:57.653Z,100816.72
2022-08-05T04:08:35.327Z,100833.91
2022-08-05T04:11:07.498Z,100836.53
2022-08-05T04:13:50.051Z,100821.25
2022-08-05T04:16:24.166Z,100822.19
2022-08-05T04:18:54.441Z,100827.63
2022-08-05T04:22:09.702Z,100821.25
2022-08-05T04:24:18.633Z,100813.38
2022-08-05T04:26:46.779Z,100817.22
2022-08-05T04:29:14.371Z,100827.31
2022-08-05T04:31:41.441Z,100838.31
2022-08-05T04:34:31.728Z,100839.25
2022-08-05T04:36:56.759Z,100852.78
2022-08-05T04:39:23.946Z,100854.44
2022-08-05T04:41:51.809Z,100839.09
2022-08-05T04:44:28.975Z,100844.56
2022-08-05T04:46:59.071Z,100847.56
2022-08-05T04:49:38.767Z,100840.69
2022-08-05T04:52:14.341Z,100838.22
2022-08-05T04:54:41.933Z,100839.59
2022-08-05T04:57:08.747Z,100838.03
2022-08-05T04:59:39.261Z,100834.63
2022-08-05T05:02:36.870Z,100834.78
2022-08-05T05:05:02.344Z,100842.09
2022-08-05T05:07:32.721Z,100839.63
2022-08-05T05:10:05.341Z,100857.81
2022-08-05T05:12:33.378Z,100857.00
2022-08-05T05:15:03.874Z,100839.94
2022-08-05T05:17:57.067Z,100839.84
2022-08-05T05:20:28.624Z,100845.34
2022-08-05T05:23:03.136Z,100841.84
2022-08-05T05:25:40.910Z,100829.97
2022-08-05T05:28:09.376Z,100831.50
2022-08-05T05:30:36.677Z,100830.31
2022-08-05T05:33:16.278Z,100821.91
2022-08-05T05:35:48.099Z,100826.53
2022-08-05T05:38:22.601Z,100828.63
2022-08-05T05:40:56.104Z,100840.44
2022-08-05T05:46:21.754Z,100846.13
2022-08-05T05:48:49.190Z,100841.25
2022-08-05T05:51:24.421Z,100844.78
2022-08-05T05:53:58.935Z,100847.88
2022-08-05T05:56:33.138Z,100848.44
2022-08-05T05:59:05.696Z,100855.28
2022-08-05T06:01:41.311Z,100856.66
2022-08-05T06:04:25.135Z,100869.00
2022-08-05T06:06:52.068Z,100870.03
2022-08-05T06:09:25.733Z,100875.38
2022-08-05T06:12:06.388Z,100876.25
2022-08-05T06:14:36.451Z,100874.41
2022-08-05T06:17:22.237Z,100884.28
2022-08-05T06:19:56.722Z,100887.00
2022-08-05T06:22:34.642Z,100890.72
2022-08-05T06:25:24.243Z,100898.13
2022-08-05T06:28:10.905Z,100915.75
2022-08-05T06:30:39.805Z,100964.81
2022-08-05T06:33:10.001Z,101007.44
2022-08-05T06:36:07.898Z,101039.16
2022-08-05T06:38:36.543Z,101035.00
2022-08-05T06:41:05.468Z,101044.44
2022-08-05T06:43:57.867Z,101049.22
2022-08-05T06:46:21.742Z,101006.66
2022-08-05T06:48:56.780Z,100951.34
2022-08-05T06:51:30.254Z,100912.50
2022-08-05T06:53:59.426Z,100895.91
2022-08-05T06:56:34.629Z,100882.75
2022-08-05T06:59:08.538Z,100886.63
2022-08-05T07:01:36.923Z,100882.31
2022-08-05T07:04:03.973Z,100884.06
2022-08-05T07:06:31.845Z,100878.81
2022-08-05T07:08:59.861Z,100884.38
2022-08-05T07:11:32.572Z,100875.50
2022-08-05T07:14:28.939Z,100860.28
2022-08-05T07:18:01.764Z,100856.84
2022-08-05T07:22:35.901Z,100863.94
2022-08-05T07:25:22.182Z,100856.72
2022-08-05T07:27:58.073Z,100873.69
2022-08-05T07:30:38.182Z,100862.91
2022-08-05T07:33:15.543Z,100871.97
2022-08-05T07:36:03.138Z,100882.66
2022-08-05T07:38:34.727Z,100884.63
2022-08-05T07:42:09.547Z,100889.38
2022-08-05T07:43:56.917Z,100887.97
2022-08-05T07:46:26.396Z,100888.19
2022-08-05T07:49:02.985Z,100891.03
2022-08-05T07:51:40.856Z,100893.19
2022-08-05T07:54:15.635Z,100891.50
2022-08-05T07:57:13.546Z,100893.19
2022-08-05T07:59:38.311Z,100893.31
2022-08-05T08:02:16.827Z,100872.72
2022-08-05T08:04:49.388Z,100877.25
2022-08-05T08:07:22.490Z,100887.16
2022-08-05T08:09:52.618Z,100871.84
2022-08-05T08:12:36.960Z,100868.09
2022-08-05T08:15:09.742Z,100889.69
2022-08-05T08:17:49.826Z,100893.31
2022-08-05T08:21:00.472Z,100888.03
2022-08-05T08:23:11.568Z,100895.44
2022-08-05T08:26:00.163Z,100884.94
2022-08-05T08:28:37.169Z,100893.00
2022-08-05T08:31:06.475Z,100888.44
2022-08-05T08:33:37.478Z,100864.97
2022-08-05T08:36:38.872Z,100856.75
2022-08-05T08:38:55.723Z,100868.34
2022-08-05T08:41:26.185Z,100863.66
2022-08-05T08:45:18.980Z,100889.63
2022-08-05T08:47:47.472Z,100885.16
2022-08-05T08:50:05.992Z,100894.72
2022-08-05T08:52:51.452Z,100920.19
2022-08-05T08:56:02.051Z,100933.63
2022-08-05T08:58:06.918Z,100928.19
2022-08-05T09:00:36.284Z,100930.78
2022-08-05T09:03:06.464Z,100931.59
2022-08-05T09:05:38.231Z,100935.03
2022-08-05T09:08:26.710Z,100934.03
2022-08-05T09:10:54.529Z,100944.81
2022-08-05T09:13:21.465Z,100953.66
2022-08-05T09:15:51.344Z,100967.66
2022-08-05T09:18:18.375Z,100953.97
2022-08-05T09:20:45.892Z,100941.13
2022-08-05T09:23:21.539Z,100959.88
2022-08-05T09:26:09.137Z,100963.63
2022-08-05T09:28:39.355Z,100965.50
2022-08-05T09:31:43.624Z,100956.31
2022-08-05T09:34:06.707Z,100966.09
2022-08-05T09:36:55.805Z,100972.28
2022-08-05T09:39:39.137Z,100967.81
2022-08-05T09:42:24.323Z,100976.03
2022-08-05T09:44:57.365Z,100973.22
2022-08-05T09:47:55.542Z,100971.19
2022-08-05T09:50:44.039Z,100974.59
2022-08-05T09:53:23.055Z,100973.59
2022-08-05T09:56:04.808Z,100972.50
2022-08-05T09:58:41.735Z,100981.31
2022-08-05T10:01:15.084Z,100991.97
2022-08-05T10:04:04.457Z,100987.53
2022-08-05T10:06:40.424Z,100989.44
2022-08-05T10:09:24.947Z,100989.50
2022-08-05T10:11:54.776Z,100992.34
2022-08-05T10:14:32.583Z,100986.94
2022-08-05T10:17:38.006Z,100991.47
2022-08-05T10:20:03.663Z,100991.81
2022-08-05T10:22:38.036Z,100999.97
2022-08-05T10:25:10.279Z,101002.72
2022-08-05T10:28:13.551Z,101000.16
2022-08-05T10:31:21.066Z,101009.31
2022-08-05T10:33:17.136Z,101010.38
2022-08-05T10:35:48.619Z,101000.53
2022-08-05T10:38:29.061Z,101000.78
2022-08-05T10:41:29.060Z,100996.53
2022-08-05T10:44:18.557Z,100994.13
2022-08-05T10:46:54.211Z,101000.47
2022-08-05T10:49:27.178Z,100990.72
2022-08-05T10:52:03.344Z,100988.94
2022-08-05T10:55:05.228Z,101016.94
2022-08-05T10:57:34.218Z,101102.41
2022-08-05T11:00:29.763Z,101109.72
2022-08-05T11:03:23.181Z,101044.31
2022-08-05T11:06:15.631Z,101070.34
2022-08-05T11:09:32.090Z,101090.47
2022-08-05T11:12:54.424Z,101091.13
2022-08-05T11:15:59.247Z,101092.38
2022-08-05T11:18:34.068Z,101092.50
2022-08-05T11:21:02.871Z,101087.25
2022-08-05T11:24:04.963Z,101092.75
2022-08-05T11:26:40.406Z,101092.88
2022-08-05T11:29:40.161Z,101091.22
2022-08-05T11:32:29.022Z,101074.94
2022-08-05T11:34:57.497Z,101078.47
2022-08-05T11:38:28.477Z,101089.00
2022-08-05T11:41:03.437Z,101078.81
2022-08-05T11:44:07.597Z,101075.78
2022-08-05T11:46:58.354Z,101075.59
2022-08-05T11:49:33.993Z,101084.38
2022-08-05T11:52:01.472Z,101089.75
2022-08-05T11:54:38.040Z,101098.66
2022-08-05T11:57:08.234Z,101090.47
2022-08-05T11:59:52.517Z,101095.03
2022-08-05T12:02:31.510Z,101104.75
2022-08-05T12:05:08.233Z,101111.75
2022-08-05T12:08:09.100Z,101107.22
2022-08-05T12:10:43.651Z,101111.78
2022-08-05T12:13:18.485Z,101123.63
2022-08-05T12:16:02.290Z,101133.63
2022-08-05T12:18:34.264Z,101140.03
2022-08-05T12:21:19.990Z,101152.88
2022-08-05T12:24:07.020Z,101168.34
2022-08-05T12:26:52.749Z,101174.81
2022-08-05T12:29:22.747Z,101180.28
2022-08-05T12:31:56.054Z,101183.94
2022-08-05T12:34:35.754Z,101173.53
2022-08-05T12:37:17.672Z,101162.13
2022-08-05T12:39:51.340Z,101179.50
2022-08-05T12:42:21.008Z,101169.91
2022-08-05T12:44:48.755Z,101178.19
2022-08-05T12:47:30.465Z,101174.66
2022-08-05T12:50:03.970Z,101179.97
2022-08-05T12:52:39.246Z,101187.03
2022-08-05T12:55:23.613Z,101204.13
2022-08-05T12:58:48.494Z,101203.38
2022-08-05T13:02:00.105Z,101207.84
2022-08-05T13:03:42.169Z,101196.22
2022-08-05T13:06:19.742Z,101185.41
2022-08-05T13:08:52.482Z,101191.47
2022-08-05T13:12:01.631Z,101195.66
2022-08-05T13:14:24.776Z,101195.53
2022-08-05T13:17:09.897Z,101205.25
2022-08-05T13:19:40.463Z,101202.56
2022-08-05T13:22:27.676Z,101198.84
2022-08-05T13:24:58.148Z,101199.34
2022-08-05T13:27:38.218Z,101200.00
2022-08-05T13:30:35.747Z,101205.38
2022-08-05T13:33:02.155Z,101200.97
2022-08-05T13:35:42.733Z,101205.38
2022-08-05T13:38:20.441Z,101202.56
2022-08-05T13:40:57.050Z,101209.50
2022-08-05T13:43:23.880Z,101210.28
2022-08-05T13:46:11.749Z,101209.19
2022-08-05T13:48:57.717Z,101220.63
2022-08-05T13:51:29.574Z,101216.06
2022-08-05T13:54:03.518Z,101216.91
2022-08-05T13:56:45.382Z,101225.66
2022-08-05T13:59:21.156Z,101227.41
2022-08-05T14:01:58.383Z,101232.69
2022-08-05T14:04:53.892Z,101223.56
2022-08-05T14:08:00.479Z,101229.63
2022-08-05T14:10:18.641Z,101237.66
2022-08-05T14:12:54.880Z,101243.81
2022-08-05T14:16:08.020Z,101253.34
2022-08-05T14:18:17.716Z,101243.88
2022-08-05T14:20:47.875Z,101241.75
2022-08-05T14:23:24.687Z,101245.13
2022-08-05T14:25:58.436Z,101246.75
2022-08-05T14:28:28.579Z,101238.47
2022-08-05T14:31:00.435Z,101242.75
2022-08-05T14:33:27.757Z,101254.09
2022-08-05T14:36:14.524Z,101257.50
2022-08-05T14:38:41.963Z,101271.75
2022-08-05T14:41:08.770Z,101277.00
2022-08-05T14:43:59.722Z,101279.66
2022-08-05T14:46:28.846Z,101270.47
2022-08-05T14:48:59.633Z,101277.63
2022-08-05T14:51:34.626Z,101272.16
2022-08-05T14:54:26.351Z,101267.56
2022-08-05T14:56:48.781Z,101267.44
2022-08-05T14:59:18.275Z,101275.22
2022-08-05T15:01:49.633Z,101268.53
2022-08-05T15:04:22.211Z,101273.53
2022-08-05T15:06:51.080Z,101283.06
2022-08-05T15:09:52.096Z,101282.78
2022-08-05T15:12:09.099Z,101276.28
2022-08-05T15:14:48.393Z,101282.38
2022-08-05T15:17:44.646Z,101283.25
2022-08-05T15:20:06.011Z,101295.97
2022-08-05T15:22:32.916Z,101296.88
2022-08-05T15:25:00.473Z,101291.16
2022-08-05T15:27:42.986Z,101301.56
2022-08-05T15:30:19.424Z,101291.56
2022-08-05T15:32:46.621Z,101275.34
2022-08-05T15:35:13.419Z,101277.22
2022-08-05T15:38:32.532Z,101281.69
2022-08-05T15:41:04.791Z,101285.19
2022-08-05T15:43:20.625Z,101292.34
2022-08-05T15:45:48.078Z,101294.13
2022-08-05T15:48:28.273Z,101293.19
2022-08-05T15:50:55.100Z,101300.41
2022-08-05T15:53:23.294Z,101295.25
2022-08-05T15:56:02.884Z,101294.47
2022-08-05T15:58:36.847Z,101297.03
2022-08-05T16:01:16.113Z,101294.13
2022-08-05T16:03:43.910Z,101294.78
2022-08-05T16:06:11.382Z,101291.72
2022-08-05T16:08:38.895Z,101300.34
2022-08-05T16:11:08.029Z,101302.84
2022-08-05T16:13:35.349Z,101295.38
2022-08-05T16:16:05.925Z,101291.69
2022-08-05T16:18:33.288Z,101282.78
2022-08-05T16:21:04.571Z,101292.84
2022-08-05T16:23:53.191Z,101287.41
2022-08-05T16:26:22.906Z,101291.91
2022-08-05T16:28:53.425Z,101290.41
2022-08-05T16:31:22.188Z,101294.88
2022-08-05T16:33:49.909Z,101297.59
2022-08-05T16:36:20.386Z,101302.06
2022-08-05T16:38:54.818Z,101301.22
2022-08-05T16:42:13.748Z,101300.44
2022-08-05T16:44:14.793Z,101296.91
2022-08-05T16:46:55.893Z,101303.47
2022-08-05T16:49:23.440Z,101299.09
2022-08-05T16:51:51.133Z,101289.22
2022-08-05T16:54:23.963Z,101300.88
2022-08-05T16:56:55.595Z,101310.53
2022-08-05T16:59:22.892Z,101311.31
2022-08-05T17:01:54.588Z,101307.75
2022-08-05T17:04:26.274Z,101309.66
2022-08-05T17:06:55.360Z,101312.47
2022-08-05T17:09:23.199Z,101309.03
2022-08-05T17:11:56.064Z,101306.41
2022-08-05T17:14:34.134Z,101313.88
2022-08-05T17:17:05.386Z,101313.25
2022-08-05T17:19:32.222Z,101308.94
2022-08-05T17:22:00.948Z,101318.09
2022-08-05T17:24:38.518Z,101318.19
2022-08-05T17:27:09.257Z,101324.69
2022-08-05T17:29:41.208Z,101325.53
2022-08-05T17:32:11.461Z,101320.13
2022-08-05T17:34:43.604Z,101325.53
2022-08-05T17:37:29.490Z,101338.06
2022-08-05T17:39:57.546Z,101347.00
2022-08-05T17:42:31.945Z,101337.22
2022-08-05T17:44:59.187Z,101340.97
2022-08-05T17:47:27.301Z,101354.69
2022-08-05T17:50:04.328Z,101359.47
2022-08-05T17:52:52.663Z,101353.34
2022-08-05T17:55:20.343Z,101360.75
2022-08-05T17:57:48.656Z,101361.84
2022-08-05T18:00:17.573Z,101363.88
2022-08-05T18:02:47.092Z,101374.72
2022-08-05T18:05:16.831Z,101388.53
2022-08-05T18:07:44.498Z,101400.47
2022-08-05T18:10:14.145Z,101399.78
2022-08-05T18:12:49.560Z,101393.81
2022-08-05T18:15:16.431Z,101405.69
2022-08-05T18:18:01.309Z,101412.16
2022-08-05T18:20:31.963Z,101422.31
2022-08-05T18:23:04.876Z,101427.91
2022-08-05T18:25:38.771Z,101427.34
2022-08-05T18:28:06.963Z,101435.53
2022-08-05T18:30:35.275Z,101436.56
2022-08-05T18:33:06.241Z,101443.03
2022-08-05T18:35:59.856Z,101446.78
2022-08-05T18:38:25.914Z,101457.78
2022-08-05T18:41:54.149Z,101453.56
2022-08-05T18:43:43.038Z,101455.53
2022-08-05T18:46:15.800Z,101470.09
2022-08-05T18:48:51.884Z,101477.53
2022-08-05T18:52:04.929Z,101476.84
2022-08-05T18:54:31.694Z,101489.72
2022-08-05T18:57:02.004Z,101489.97
2022-08-05T18:59:44.438Z,101488.41
2022-08-05T19:02:27.217Z,101491.28
2022-08-05T19:06:06.371Z,101499.56
2022-08-05T19:07:55.176Z,101501.56
2022-08-05T19:10:28.212Z,101508.84
2022-08-05T19:12:56.863Z,101505.44
2022-08-05T19:15:57.935Z,101516.38
2022-08-05T19:18:20.949Z,101522.00
2022-08-05T19:20:53.681Z,101529.38
2022-08-05T19:24:04.170Z,101531.34
2022-08-05T19:26:08.575Z,101533.34
2022-08-05T19:28:41.799Z,101540.66
2022-08-05T19:31:13.401Z,101538.13
2022-08-05T19:33:48.302Z,101548.16
2022-08-05T19:36:26.544Z,101552.81
2022-08-05T19:39:00.736Z,101560.13
2022-08-05T19:41:58.263Z,101571.03
2022-08-05T19:44:16.959Z,101577.44
2022-08-05T19:46:45.442Z,101579.34
2022-08-05T19:49:16.850Z,101588.34
2022-08-05T19:52:08.374Z,101582.22
2022-08-05T19:54:34.911Z,101587.69
2022-08-05T19:57:06.750Z,101589.66
2022-08-05T20:00:00.448Z,101596.22
2022-08-05T20:02:25.969Z,101588.22
2022-08-05T20:04:53.692Z,101599.00
2022-08-05T20:07:38.935Z,101601.81
2022-08-05T20:10:13.579Z,101602.78
2022-08-05T20:12:45.948Z,101610.97
2022-08-05T20:15:22.964Z,101616.47
2022-08-05T20:18:04.349Z,101626.44
2022-08-05T20:20:38.572Z,101625.63
2022-08-05T20:23:05.767Z,101627.47
2022-08-05T20:25:39.965Z,101632.97
2022-08-05T20:28:08.300Z,101633.03
2022-08-05T20:30:41.340Z,101629.75
2022-08-05T20:33:08.677Z,101641.47
2022-08-05T20:35:40.469Z,101639.72
2022-08-05T20:38:22.639Z,101637.13
2022-08-05T20:40:55.550Z,101653.34
2022-08-05T20:43:57.949Z,101669.56
2022-08-05T20:46:18.458Z,101670.56
2022-08-05T20:48:52.025Z,101670.59
2022-08-05T20:51:18.851Z,101668.03
2022-08-05T20:53:56.991Z,101672.59
2022-08-05T20:56:31.876Z,101674.41
2022-08-05T20:59:14.365Z,101673.63
2022-08-05T21:01:46.661Z,101668.34
2022-08-05T21:04:14.035Z,101675.56
2022-08-05T21:06:45.608Z,101674.75
2022-08-05T21:09:14.225Z,101680.16
2022-08-05T21:12:10.756Z,101681.16
2022-08-05T21:14:32.003Z,101684.84
2022-08-05T21:17:05.849Z,101684.94
2022-08-05T21:19:47.122Z,101693.03
2022-08-05T21:22:23.272Z,101687.75
2022-08-05T21:24:52.566Z,101692.31
2022-08-05T21:27:25.180Z,101688.84
2022-08-05T21:29:56.269Z,101697.84
2022-08-05T21:32:26.828Z,101697.91
2022-08-05T21:35:16.723Z,101700.69
2022-08-05T21:37:42.855Z,101709.69
2022-08-05T21:40:14.365Z,101702.56
2022-08-05T21:42:44.577Z,101701.78
2022-08-05T21:45:11.867Z,101712.59
2022-08-05T21:47:56.018Z,101711.78
2022-08-05T21:50:26.214Z,101717.22
2022-08-05T21:52:53.654Z,101720.88
2022-08-05T21:56:04.169Z,101715.59
2022-08-05T21:58:12.814Z,101716.59
2022-08-05T22:00:40.080Z,101716.66
2022-08-05T22:03:09.751Z,101727.50
2022-08-05T22:05:49.267Z,101725.81
2022-08-05T22:08:22.268Z,101724.09
2022-08-05T22:10:51.674Z,101728.63
2022-08-05T22:14:05.680Z,101719.81
2022-08-05T22:16:32.086Z,101728.88
2022-08-05T22:18:54.129Z,101728.06
2022-08-05T22:21:25.593Z,101734.34
2022-08-05T22:24:13.169Z,101730.84
2022-08-05T22:27:17.523Z,101738.09
2022-08-05T22:29:44.556Z,101731.00
2022-08-05T22:32:12.782Z,101731.09
2022-08-05T22:34:44.575Z,101741.84
2022-08-05T22:37:12.869Z,101736.53
2022-08-05T22:39:39.845Z,101743.69
2022-08-05T22:42:12.448Z,101744.69
2022-08-05T22:44:48.431Z,101741.16
2022-08-05T22:47:29.406Z,101744.81
2022-08-05T22:50:20.078Z,101743.09
2022-08-05T22:52:47.001Z,101745.88
2022-08-05T22:55:19.432Z,101745.94
2022-08-05T22:57:49.023Z,101757.66
2022-08-05T23:00:18.466Z,101763.97
2022-08-05T23:02:47.999Z,101766.72
2022-08-05T23:05:15.984Z,101763.19
2022-08-05T23:07:44.869Z,101760.56
2022-08-05T23:10:12.879Z,101770.47
2022-08-05T23:12:39.751Z,101771.44
2022-08-05T23:15:10.500Z,101774.13
2022-08-05T23:18:00.644Z,101771.53
2022-08-05T23:20:25.791Z,101769.84
2022-08-05T23:22:55.629Z,101768.06
2022-08-05T23:25:51.635Z,101766.34
2022-08-05T23:28:11.943Z,101767.31
2022-08-05T23:30:39.619Z,101761.97
2022-08-05T23:33:16.046Z,101778.09
2022-08-05T23:35:45.854Z,101778.16
2022-08-05T23:38:12.672Z,101787.13
2022-08-05T23:40:42.411Z,101783.56
2022-08-05T23:43:25.685Z,101794.34
2022-08-05T23:46:20.997Z,101795.28
2022-08-05T23:49:00.790Z,101790.00
2022-08-05T23:51:54.902Z,101796.25
2022-08-05T23:54:30.140Z,101809.75
2022-08-05T23:57:03.841Z,101810.72
